Time;durP1;ratioP1;P1;durP2;ratioP2;P2;SDS_P1;SDS_P2;PMS_P1;PMS_P2;Temp;Humidity;BMP_temperature;BMP_pressure;BME280_temperature;BME280_humidity;BME280_pressure;Samples;Min_cycle;Max_cycle;Signal;HPM_P1;HPM_P2
2023/12/20 00:01:13;;;;;;;1.93;1.33;;;9.50;99.90;;;;;;5051626;28;20205;-62
2023/12/20 00:03:39;;;;;;;1.50;1.10;;;9.60;99.90;;;;;;5051756;28;20201;-62
2023/12/20 00:06:06;;;;;;;1.87;1.33;;;9.60;99.90;;;;;;5052060;28;20212;-62
2023/12/20 00:08:33;;;;;;;1.93;1.50;;;9.70;99.90;;;;;;5051910;28;20232;-60
2023/12/20 00:10:59;;;;;;;1.67;1.20;;;9.70;99.90;;;;;;5051559;28;20205;-60
2023/12/20 00:13:26;;;;;;;1.43;1.30;;;9.70;99.90;;;;;;5051373;28;20236;-61
2023/12/20 00:15:54;;;;;;;1.57;1.30;;;9.70;99.90;;;;;;5051564;28;20213;-61
2023/12/20 00:18:21;;;;;;;1.70;1.40;;;9.70;99.90;;;;;;5051589;28;20201;-61
2023/12/20 00:20:47;;;;;;;1.60;1.47;;;9.80;99.90;;;;;;5051328;28;20206;-61
2023/12/20 00:23:14;;;;;;;1.60;1.40;;;9.90;99.90;;;;;;5051326;28;20295;-61
2023/12/20 00:25:40;;;;;;;1.73;1.30;;;9.90;99.90;;;;;;5051543;28;20216;-61
2023/12/20 00:28:07;;;;;;;1.67;1.27;;;10.00;99.90;;;;;;5034498;28;20202;-61
2023/12/20 00:30:33;;;;;;;1.80;1.40;;;10.00;99.90;;;;;;5050983;28;20281;-61
2023/12/20 00:33:02;;;;;;;2.03;1.20;;;10.00;99.90;;;;;;5050867;28;20237;-61
2023/12/20 00:35:29;;;;;;;2.10;1.40;;;10.00;99.90;;;;;;5051211;28;20658;-61
2023/12/20 00:37:55;;;;;;;1.40;1.30;;;10.00;99.90;;;;;;5051242;28;20210;-61
2023/12/20 00:40:22;;;;;;;1.57;1.17;;;10.00;99.90;;;;;;5051120;28;20214;-61
2023/12/20 00:42:49;;;;;;;1.43;1.27;;;10.10;99.90;;;;;;5050954;28;20233;-61
2023/12/20 00:45:16;;;;;;;1.17;0.97;;;10.10;99.90;;;;;;5050868;28;20202;-61
2023/12/20 00:47:42;;;;;;;2.10;1.10;;;10.10;99.90;;;;;;5051216;28;20257;-62
2023/12/20 00:50:11;;;;;;;1.20;1.00;;;10.10;99.90;;;;;;5051085;28;20210;-63
2023/12/20 00:52:37;;;;;;;1.93;1.17;;;10.00;99.90;;;;;;5050941;28;20225;-61
2023/12/20 00:55:05;;;;;;;1.43;0.90;;;10.00;99.90;;;;;;5050881;28;20202;-61
2023/12/20 00:57:32;;;;;;;1.27;1.00;;;9.90;99.90;;;;;;5050454;28;20209;-61
2023/12/20 00:59:59;;;;;;;2.30;1.40;;;9.70;99.90;;;;;;5050551;28;20205;-61
2023/12/20 01:02:25;;;;;;;2.70;1.10;;;9.60;99.90;;;;;;5050645;28;20718;-61
2023/12/20 01:04:52;;;;;;;1.63;1.20;;;9.60;99.90;;;;;;5050966;28;20567;-61
2023/12/20 01:07:21;;;;;;;1.40;1.00;;;9.60;99.90;;;;;;5050802;28;20629;-62
2023/12/20 01:09:47;;;;;;;5.57;1.23;;;9.40;99.90;;;;;;5050819;28;20213;-62
2023/12/20 01:12:14;;;;;;;4.10;1.40;;;9.20;99.90;;;;;;5050485;28;20222;-62
2023/12/20 01:14:41;;;;;;;2.40;1.17;;;9.10;99.90;;;;;;5050874;28;20210;-62
2023/12/20 01:17:07;;;;;;;3.17;1.30;;;9.20;99.90;;;;;;5050910;28;20208;-62
2023/12/20 01:19:34;;;;;;;2.13;1.03;;;9.20;99.90;;;;;;5050627;28;20235;-62
2023/12/20 01:22:01;;;;;;;2.60;1.43;;;9.20;99.90;;;;;;5050534;28;20225;-62
2023/12/20 01:24:29;;;;;;;1.37;1.27;;;9.30;99.90;;;;;;5050511;28;20212;-61
2023/12/20 01:26:55;;;;;;;1.60;1.50;;;9.40;99.90;;;;;;5050524;28;20235;-61
2023/12/20 01:29:22;;;;;;;2.80;1.30;;;9.40;99.90;;;;;;5050724;28;20205;-62
2023/12/20 01:31:49;;;;;;;1.57;1.37;;;9.50;99.90;;;;;;5050440;28;20232;-62
2023/12/20 01:34:15;;;;;;;2.40;1.40;;;9.40;99.90;;;;;;5050513;28;20198;-62
2023/12/20 01:36:42;;;;;;;2.13;1.53;;;9.20;99.90;;;;;;5050622;28;20691;-62
2023/12/20 01:39:09;;;;;;;1.90;1.50;;;9.00;99.90;;;;;;5050535;28;20205;-62
2023/12/20 01:41:37;;;;;;;2.83;1.70;;;9.00;99.90;;;;;;5052637;28;20237;-62
2023/12/20 01:44:04;;;;;;;1.83;1.60;;;8.90;99.90;;;;;;5054510;28;22420;-62
2023/12/20 01:46:31;;;;;;;2.07;1.60;;;9.00;99.90;;;;;;5054549;28;20292;-62
2023/12/20 01:48:58;;;;;;;3.37;1.80;;;9.10;99.90;;;;;;5054457;28;20451;-62
2023/12/20 01:51:27;;;;;;;2.13;1.40;;;9.20;99.90;;;;;;5054004;28;20252;-62
2023/12/20 01:53:54;;;;;;;1.90;1.60;;;9.10;99.90;;;;;;5053951;28;20766;-62
2023/12/20 01:56:21;;;;;;;2.00;1.80;;;9.10;99.90;;;;;;5054147;28;20213;-62
2023/12/20 01:58:50;;;;;;;2.37;1.50;;;9.10;99.90;;;;;;5054039;28;20564;-62
2023/12/20 02:01:17;;;;;;;1.83;1.60;;;8.90;99.90;;;;;;5054001;28;20214;-62
2023/12/20 02:03:44;;;;;;;2.20;1.77;;;8.80;99.90;;;;;;5054161;28;20297;-62
2023/12/20 02:06:11;;;;;;;2.33;1.80;;;8.80;99.90;;;;;;5038119;28;20205;-62
2023/12/20 02:08:38;;;;;;;2.03;1.70;;;8.70;99.90;;;;;;5053957;28;20663;-62
2023/12/20 02:11:05;;;;;;;2.10;1.90;;;8.70;99.90;;;;;;5053872;28;20221;-62
2023/12/20 02:13:32;;;;;;;2.33;1.83;;;8.70;99.90;;;;;;5053541;28;20229;-62
2023/12/20 02:16:01;;;;;;;2.30;1.90;;;8.80;99.90;;;;;;5053864;28;20205;-62
2023/12/20 02:18:28;;;;;;;3.20;2.20;;;8.90;99.90;;;;;;5053903;28;20222;-62
2023/12/20 02:20:55;;;;;;;2.23;1.93;;;8.90;99.90;;;;;;5053535;28;20243;-62
2023/12/20 02:23:23;;;;;;;2.90;2.23;;;8.90;99.90;;;;;;5054006;28;20255;-62
2023/12/20 02:25:50;;;;;;;4.13;2.37;;;9.00;99.90;;;;;;5053628;28;20216;-63
2023/12/20 02:28:17;;;;;;;2.97;2.20;;;9.00;99.90;;;;;;5053782;28;20209;-62
2023/12/20 02:30:44;;;;;;;2.57;2.20;;;9.00;99.90;;;;;;5053410;28;20671;-62
2023/12/20 02:33:14;;;;;;;3.10;2.63;;;9.10;99.90;;;;;;5037091;28;20244;-62
2023/12/20 02:35:41;;;;;;;3.60;2.57;;;9.10;99.90;;;;;;5053494;28;20255;-62
2023/12/20 02:38:08;;;;;;;2.80;2.20;;;9.10;99.90;;;;;;5053298;28;20255;-62
2023/12/20 02:40:36;;;;;;;4.67;2.47;;;9.10;99.90;;;;;;5053435;28;20217;-62
2023/12/20 02:43:03;;;;;;;3.13;2.40;;;9.10;99.90;;;;;;5053333;28;20233;-62
2023/12/20 02:45:30;;;;;;;2.83;2.50;;;9.10;99.90;;;;;;5053261;28;20597;-62
2023/12/20 02:47:57;;;;;;;3.07;2.73;;;9.20;99.90;;;;;;5053295;28;20217;-63
2023/12/20 02:50:23;;;;;;;2.87;2.57;;;9.20;99.90;;;;;;5053004;28;20212;-62
2023/12/20 02:52:50;;;;;;;4.07;2.93;;;9.10;99.90;;;;;;5052531;28;20275;-62
2023/12/20 02:55:17;;;;;;;3.03;2.73;;;9.20;99.90;;;;;;5053349;28;20605;-62
2023/12/20 02:57:44;;;;;;;3.10;2.53;;;9.20;99.90;;;;;;5053076;28;20206;-62
2023/12/20 03:00:12;;;;;;;2.73;2.50;;;9.10;99.90;;;;;;5036579;28;20663;-62
2023/12/20 03:02:38;;;;;;;3.37;3.00;;;9.00;99.90;;;;;;5052834;28;20225;-62
2023/12/20 03:05:06;;;;;;;3.70;3.20;;;8.90;99.90;;;;;;5052843;28;20749;-62
2023/12/20 03:07:33;;;;;;;3.07;2.77;;;8.90;99.90;;;;;;5053118;28;20216;-62
2023/12/20 03:09:59;;;;;;;2.63;2.40;;;9.00;99.90;;;;;;5052679;28;20224;-62
2023/12/20 03:12:26;;;;;;;2.87;2.27;;;8.90;99.90;;;;;;5052465;28;20225;-62
2023/12/20 03:14:53;;;;;;;2.50;2.10;;;8.80;99.90;;;;;;5052801;28;20213;-62
2023/12/20 03:17:20;;;;;;;2.30;2.10;;;8.80;99.90;;;;;;5052578;28;20285;-62
2023/12/20 03:19:47;;;;;;;1.77;1.60;;;8.80;99.90;;;;;;5052402;28;20643;-62
2023/12/20 03:22:13;;;;;;;2.57;1.90;;;8.80;99.90;;;;;;5052452;28;20229;-62
2023/12/20 03:24:40;;;;;;;2.23;2.00;;;8.70;99.90;;;;;;5052694;28;20667;-62
2023/12/20 03:27:07;;;;;;;2.30;1.80;;;8.80;99.90;;;;;;5052480;28;20214;-62
2023/12/20 03:29:33;;;;;;;1.70;1.60;;;8.80;99.90;;;;;;5052363;28;20628;-62
2023/12/20 03:32:01;;;;;;;2.50;1.50;;;8.90;99.90;;;;;;5052222;28;20225;-62
2023/12/20 03:34:29;;;;;;;2.17;1.27;;;8.90;99.90;;;;;;5052408;28;20225;-62
2023/12/20 03:36:55;;;;;;;1.50;0.97;;;8.80;99.90;;;;;;5052286;28;20679;-62
2023/12/20 03:39:22;;;;;;;1.43;1.10;;;8.90;99.90;;;;;;5052273;28;20208;-62
2023/12/20 03:41:49;;;;;;;0.90;0.70;;;8.90;99.90;;;;;;5052070;28;20233;-62
2023/12/20 03:44:15;;;;;;;0.60;0.60;;;8.90;99.90;;;;;;5052206;28;20205;-62
2023/12/20 03:46:42;;;;;;;1.13;0.50;;;8.80;99.90;;;;;;5052088;28;20205;-62
2023/12/20 03:49:10;;;;;;;0.63;0.43;;;8.80;99.90;;;;;;5052295;28;20209;-62
2023/12/20 03:51:37;;;;;;;0.40;0.40;;;8.80;99.90;;;;;;5052103;28;20290;-62
2023/12/20 03:54:04;;;;;;;0.30;0.30;;;8.80;99.90;;;;;;5051952;28;20279;-62
2023/12/20 03:56:30;;;;;;;0.60;0.43;;;8.90;99.90;;;;;;5052036;28;20746;-62
2023/12/20 03:58:57;;;;;;;0.47;0.40;;;8.90;99.90;;;;;;5051889;28;20239;-62
2023/12/20 04:01:25;;;;;;;0.40;0.40;;;8.90;99.90;;;;;;5051821;28;20208;-62
2023/12/20 04:03:52;;;;;;;0.40;0.33;;;8.90;99.90;;;;;;5051138;28;20202;-62
2023/12/20 04:06:20;;;;;;;0.40;0.40;;;8.90;99.90;;;;;;5051863;28;20213;-62
2023/12/20 04:08:47;;;;;;;0.30;0.20;;;8.90;99.90;;;;;;5051857;28;20667;-62
2023/12/20 04:11:13;;;;;;;0.30;0.30;;;8.90;99.90;;;;;;5035136;28;20567;-62
2023/12/20 04:13:40;;;;;;;0.60;0.50;;;8.90;99.90;;;;;;5066070;22;20606;-57
2023/12/20 04:16:07;;;;;;;6.33;5.20;;;8.90;99.90;;;;;;5042247;28;20210;-56
2023/12/20 04:18:34;;;;;;;0.73;0.40;;;8.90;99.90;;;;;;5043423;28;20205;-57
2023/12/20 04:21:00;;;;;;;0.47;0.33;;;8.90;99.90;;;;;;5041222;28;20210;-57
2023/12/20 04:23:28;;;;;;;0.40;0.40;;;8.90;99.90;;;;;;5047491;28;20233;-57
2023/12/20 04:25:55;;;;;;;0.30;0.30;;;8.90;99.90;;;;;;5051229;28;20629;-57
2023/12/20 04:28:22;;;;;;;0.80;0.30;;;8.80;99.90;;;;;;5051578;28;20198;-58
2023/12/20 04:30:49;;;;;;;0.67;0.50;;;8.70;99.90;;;;;;5051218;28;20202;-55
2023/12/20 04:33:15;;;;;;;1.53;0.40;;;8.70;99.90;;;;;;5051090;28;20225;-58
2023/12/20 04:35:42;;;;;;;0.40;0.40;;;8.80;99.90;;;;;;5051172;28;20206;-58
2023/12/20 04:38:09;;;;;;;0.67;0.50;;;8.90;99.90;;;;;;5050971;28;20214;-57
2023/12/20 04:40:38;;;;;;;2.00;0.40;;;8.90;99.90;;;;;;5050768;28;20683;-58
2023/12/20 04:43:05;;;;;;;2.50;0.60;;;8.90;99.90;;;;;;5050753;28;20770;-58
2023/12/20 04:45:31;;;;;;;1.90;0.50;;;8.90;99.90;;;;;;5051111;28;20209;-58
2023/12/20 04:47:58;;;;;;;0.30;0.30;;;8.90;99.90;;;;;;5050988;28;20263;-58
2023/12/20 04:50:26;;;;;;;0.33;0.33;;;8.80;99.90;;;;;;5050746;28;20643;-58
2023/12/20 04:52:53;;;;;;;0.47;0.47;;;8.90;99.90;;;;;;5050627;28;20221;-58
2023/12/20 04:55:19;;;;;;;0.40;0.30;;;8.80;99.90;;;;;;5050872;28;20236;-58
2023/12/20 04:57:47;;;;;;;1.17;0.40;;;8.70;99.90;;;;;;5051364;28;20255;-58
2023/12/20 05:00:15;;;;;;;0.87;0.60;;;8.70;99.90;;;;;;5050457;28;20221;-58
2023/12/20 05:02:42;;;;;;;0.30;0.30;;;8.70;99.90;;;;;;5050533;28;20726;-57
2023/12/20 05:05:09;;;;;;;0.93;0.30;;;8.80;99.90;;;;;;5050844;28;20248;-57
2023/12/20 05:07:36;;;;;;;2.73;1.20;;;8.90;99.90;;;;;;5050894;28;20378;-57
2023/12/20 05:10:04;;;;;;;0.47;0.20;;;8.90;99.90;;;;;;5050501;28;20213;-59
2023/12/20 05:12:30;;;;;;;2.40;0.90;;;8.80;99.90;;;;;;5050202;28;20315;-57
2023/12/20 05:14:59;;;;;;;0.53;0.30;;;8.90;99.90;;;;;;5051658;28;20279;-57
2023/12/20 05:17:25;;;;;;;0.53;0.50;;;8.90;99.90;;;;;;5054368;28;20849;-57
2023/12/20 05:19:52;;;;;;;0.60;0.50;;;9.00;99.90;;;;;;5054407;28;20740;-57
2023/12/20 05:22:20;;;;;;;0.40;0.40;;;9.00;99.90;;;;;;5054105;28;20603;-58
2023/12/20 05:24:46;;;;;;;0.30;0.30;;;9.00;99.90;;;;;;5054557;28;20200;-58
2023/12/20 05:27:13;;;;;;;0.20;0.20;;;9.00;99.90;;;;;;5054737;28;20202;-58
2023/12/20 05:29:40;;;;;;;1.50;0.37;;;9.00;99.90;;;;;;5054338;28;20205;-58
2023/12/20 05:32:08;;;;;;;0.43;0.33;;;8.90;99.90;;;;;;5054636;28;20225;-57
2023/12/20 05:34:34;;;;;;;0.90;0.63;;;9.00;99.90;;;;;;5054713;28;20320;-58
2023/12/20 05:37:02;;;;;;;0.30;0.30;;;9.00;99.90;;;;;;5054836;28;20259;-57
2023/12/20 05:39:30;;;;;;;0.73;0.50;;;9.00;99.90;;;;;;5054380;28;20240;-57
2023/12/20 05:41:57;;;;;;;0.40;0.40;;;9.00;99.90;;;;;;5054173;28;20252;-57
2023/12/20 05:44:24;;;;;;;1.10;0.53;;;9.00;99.90;;;;;;5054656;28;20597;-58
2023/12/20 05:46:51;;;;;;;0.93;0.53;;;9.00;99.90;;;;;;5054238;28;20212;-58
2023/12/20 05:49:19;;;;;;;1.33;0.73;;;9.00;99.90;;;;;;5038126;28;20243;-57
2023/12/20 05:51:45;;;;;;;1.57;0.57;;;8.90;99.90;;;;;;5053672;28;20220;-59
2023/12/20 05:54:12;;;;;;;1.77;0.80;;;8.90;99.90;;;;;;5053764;28;20575;-58
2023/12/20 05:56:39;;;;;;;1.60;0.60;;;8.90;99.90;;;;;;5054308;28;20209;-57
2023/12/20 05:59:05;;;;;;;1.43;0.73;;;8.90;99.90;;;;;;5054169;28;20210;-56
2023/12/20 06:01:32;;;;;;;2.53;1.40;;;8.80;99.90;;;;;;5053790;28;20263;-57
2023/12/20 06:03:58;;;;;;;1.13;0.73;;;8.80;99.90;;;;;;5053607;28;20207;-56
2023/12/20 06:06:26;;;;;;;1.13;0.83;;;8.80;99.90;;;;;;5054358;28;20205;-57
2023/12/20 06:08:53;;;;;;;0.80;0.63;;;8.90;99.90;;;;;;5053901;28;20213;-57
2023/12/20 06:11:20;;;;;;;1.63;0.70;;;9.00;99.90;;;;;;5053505;28;20667;-57
2023/12/20 06:13:47;;;;;;;2.10;1.03;;;9.10;99.90;;;;;;5053294;28;20717;-58
2023/12/20 06:16:13;;;;;;;2.37;1.43;;;9.00;99.90;;;;;;5053338;28;20207;-57
2023/12/20 06:18:41;;;;;;;4.20;1.37;;;9.10;99.90;;;;;;5053495;28;20251;-58
2023/12/20 06:21:08;;;;;;;1.83;1.10;;;9.10;99.90;;;;;;5053243;28;20209;-58
2023/12/20 06:23:36;;;;;;;4.23;1.60;;;9.00;99.90;;;;;;5053485;28;20233;-58
2023/12/20 06:26:02;;;;;;;2.87;1.00;;;9.10;99.90;;;;;;5052769;28;20213;-58
2023/12/20 06:28:29;;;;;;;1.70;1.13;;;9.20;99.90;;;;;;5053414;28;20213;-57
2023/12/20 06:30:57;;;;;;;1.37;1.17;;;9.20;99.90;;;;;;5053581;28;20625;-58
2023/12/20 06:33:23;;;;;;;2.20;1.60;;;9.20;99.90;;;;;;5053162;28;20223;-56
2023/12/20 06:35:50;;;;;;;1.73;1.43;;;9.20;99.90;;;;;;5053463;28;20216;-57
2023/12/20 06:38:19;;;;;;;1.70;1.40;;;9.30;99.90;;;;;;5053274;28;20205;-58
2023/12/20 06:40:47;;;;;;;2.27;1.77;;;9.30;99.90;;;;;;5053010;28;20593;-58
2023/12/20 06:43:14;;;;;;;2.33;1.40;;;9.30;99.90;;;;;;5052748;28;20229;-58
2023/12/20 06:45:40;;;;;;;2.40;1.47;;;9.30;99.90;;;;;;5052968;28;20206;-58
2023/12/20 06:48:08;;;;;;;3.97;1.67;;;9.30;99.90;;;;;;5052938;28;20208;-58
2023/12/20 06:50:34;;;;;;;3.30;1.63;;;9.30;99.90;;;;;;5052838;28;20205;-58
2023/12/20 06:53:06;;;;;;;2.17;1.47;;;9.30;99.90;;;;;;5052572;28;20245;-58
2023/12/20 06:55:33;;;;;;;3.50;1.50;;;9.20;99.90;;;;;;5052826;28;20218;-58
2023/12/20 06:58:01;;;;;;;3.27;1.47;;;9.30;99.90;;;;;;5052644;28;20209;-58
2023/12/20 07:00:28;;;;;;;4.33;1.70;;;9.30;99.90;;;;;;5052727;28;20848;-58
2023/12/20 07:02:55;;;;;;;1.83;1.50;;;9.30;99.90;;;;;;5052369;28;20741;-58
2023/12/20 07:05:22;;;;;;;2.63;1.30;;;9.30;99.90;;;;;;5052724;28;20628;-57
2023/12/20 07:07:48;;;;;;;1.27;1.17;;;9.30;99.90;;;;;;5052626;28;20209;-59
2023/12/20 07:10:15;;;;;;;3.37;1.57;;;9.30;99.90;;;;;;5052430;28;20267;-58
2023/12/20 07:12:42;;;;;;;2.30;1.77;;;9.30;99.90;;;;;;5052026;28;20306;-57
2023/12/20 07:15:11;;;;;;;2.10;1.47;;;9.40;99.90;;;;;;5052650;28;20672;-58
2023/12/20 07:17:38;;;;;;;2.87;2.53;;;9.40;99.90;;;;;;5052320;28;20228;-58
2023/12/20 07:20:09;;;;;;;2.43;1.63;;;9.40;99.90;;;;;;5052136;28;20261;-58
2023/12/20 07:22:36;;;;;;;2.90;2.20;;;9.40;99.90;;;;;;5051954;28;20226;-58
2023/12/20 07:25:03;;;;;;;3.50;2.10;;;9.30;99.90;;;;;;5052247;28;20255;-58
2023/12/20 07:27:30;;;;;;;1.97;1.70;;;9.20;99.90;;;;;;5052635;28;20224;-63
2023/12/20 07:29:56;;;;;;;3.50;1.90;;;9.30;99.90;;;;;;5052441;28;20209;-57
2023/12/20 07:32:24;;;;;;;2.23;2.03;;;9.30;99.90;;;;;;5052559;28;20230;-57
2023/12/20 07:34:51;;;;;;;2.20;2.00;;;9.20;99.90;;;;;;5052856;28;20221;-57
2023/12/20 07:37:18;;;;;;;2.50;2.30;;;9.20;99.90;;;;;;5052392;28;20667;-57
2023/12/20 07:39:45;;;;;;;2.60;2.13;;;9.20;99.90;;;;;;5052037;28;20214;-55
2023/12/20 07:42:11;;;;;;;2.50;2.30;;;9.00;99.90;;;;;;5051942;28;20307;-56
2023/12/20 07:44:38;;;;;;;3.03;2.77;;;8.80;99.90;;;;;;5051758;28;20252;-57
2023/12/20 07:47:05;;;;;;;2.50;2.30;;;8.80;99.90;;;;;;5052010;28;20221;-56
2023/12/20 07:49:33;;;;;;;2.43;2.23;;;8.80;99.90;;;;;;5052346;28;20216;-57
2023/12/20 07:52:00;;;;;;;2.87;2.53;;;8.80;99.90;;;;;;5051364;28;20598;-56
2023/12/20 07:54:27;;;;;;;2.53;2.33;;;8.80;99.90;;;;;;5051319;28;20886;-56
2023/12/20 07:56:53;;;;;;;2.60;2.40;;;8.90;99.90;;;;;;5052082;28;20213;-56
2023/12/20 07:59:20;;;;;;;2.70;2.40;;;9.00;99.90;;;;;;5035548;28;20212;-57
2023/12/20 08:01:47;;;;;;;2.60;2.40;;;9.10;99.90;;;;;;5051318;28;20616;-57
2023/12/20 08:04:13;;;;;;;2.60;2.40;;;9.10;99.90;;;;;;5051503;28;20578;-56
2023/12/20 08:06:41;;;;;;;2.20;2.00;;;9.10;99.90;;;;;;5051559;28;20209;-57
2023/12/20 08:09:08;;;;;;;2.30;2.10;;;9.10;99.90;;;;;;5051481;28;20231;-56
2023/12/20 08:11:35;;;;;;;3.20;2.73;;;9.20;99.90;;;;;;5051561;28;20239;-57
2023/12/20 08:14:01;;;;;;;3.07;2.27;;;9.20;99.90;;;;;;5051514;28;20213;-56
2023/12/20 08:16:28;;;;;;;2.40;2.20;;;9.20;99.90;;;;;;5051826;28;20201;-56
2023/12/20 08:18:54;;;;;;;2.20;2.00;;;9.20;99.90;;;;;;5051507;28;20213;-56
2023/12/20 08:21:22;;;;;;;9.13;6.97;;;9.20;99.90;;;;;;5035006;28;20496;-57
2023/12/20 08:23:50;;;;;;;2.80;2.10;;;9.30;99.90;;;;;;5051262;28;20260;-57
2023/12/20 08:26:21;;;;;;;2.33;2.00;;;9.20;99.90;;;;;;5051403;28;20606;-57
2023/12/20 08:28:48;;;;;;;2.17;2.03;;;9.30;99.90;;;;;;5051700;28;20216;-57
2023/12/20 08:31:16;;;;;;;2.97;1.93;;;9.30;99.90;;;;;;5051351;28;20210;-57
2023/12/20 08:33:44;;;;;;;4.10;2.60;;;9.20;99.90;;;;;;5051510;28;20295;-57
2023/12/20 08:36:11;;;;;;;2.37;2.10;;;9.20;99.90;;;;;;5051329;28;20230;-57
2023/12/20 08:38:37;;;;;;;2.07;1.80;;;9.10;99.90;;;;;;5051276;28;20311;-57
2023/12/20 08:41:06;;;;;;;3.73;3.33;;;9.00;99.90;;;;;;5051326;28;20259;-56
2023/12/20 08:43:32;;;;;;;3.10;2.30;;;8.90;99.90;;;;;;5050946;28;20229;-57
2023/12/20 08:45:59;;;;;;;2.97;2.40;;;8.80;99.90;;;;;;5050883;28;20198;-56
2023/12/20 08:48:26;;;;;;;4.53;3.17;;;8.70;99.90;;;;;;5050960;28;20205;-56
2023/12/20 08:50:52;;;;;;;5.43;2.57;;;8.80;99.90;;;;;;5050382;28;20209;-58
2023/12/20 08:53:19;;;;;;;3.47;2.67;;;8.80;99.90;;;;;;5050967;28;20251;-56
2023/12/20 08:55:46;;;;;;;3.10;2.33;;;8.80;99.90;;;;;;5051438;28;20657;-58
2023/12/20 08:58:14;;;;;;;5.37;3.00;;;8.70;99.90;;;;;;5051278;28;20256;-58
2023/12/20 09:00:41;;;;;;;3.30;2.57;;;8.70;99.90;;;;;;5051313;28;20229;-57
2023/12/20 09:03:08;;;;;;;6.20;2.43;;;8.60;99.90;;;;;;5051003;28;20226;-58
2023/12/20 09:05:34;;;;;;;3.27;2.20;;;8.60;99.90;;;;;;5050982;28;20212;-56
2023/12/20 09:08:01;;;;;;;2.63;2.17;;;8.40;99.90;;;;;;5051021;28;20737;-58
2023/12/20 09:10:28;;;;;;;3.57;2.40;;;8.40;99.90;;;;;;5051280;28;20202;-58
2023/12/20 09:12:56;;;;;;;5.10;2.53;;;8.50;99.90;;;;;;5051030;28;20700;-57
2023/12/20 09:15:24;;;;;;;4.63;2.77;;;8.50;99.90;;;;;;5035051;28;20672;-57
2023/12/20 09:17:51;;;;;;;4.07;2.37;;;8.50;99.90;;;;;;5051268;28;20209;-57
2023/12/20 09:20:18;;;;;;;6.20;2.40;;;8.40;99.90;;;;;;5050780;28;20217;-57
2023/12/20 09:22:45;;;;;;;3.10;2.50;;;8.40;99.90;;;;;;5051078;28;20669;-56
2023/12/20 09:25:12;;;;;;;6.77;2.83;;;8.40;99.90;;;;;;5051137;28;20197;-57
2023/12/20 09:27:39;;;;;;;3.93;2.03;;;8.50;99.90;;;;;;5051227;28;20201;-57
2023/12/20 09:30:06;;;;;;;2.77;2.10;;;8.70;99.90;;;;;;5050862;28;20213;-58
2023/12/20 09:32:34;;;;;;;3.97;2.60;;;8.60;99.90;;;;;;5050714;28;20271;-58
2023/12/20 09:35:01;;;;;;;4.37;2.40;;;8.60;99.90;;;;;;5051025;28;20312;-57
2023/12/20 09:37:29;;;;;;;4.27;2.40;;;8.70;99.90;;;;;;5050864;28;20209;-58
2023/12/20 09:39:56;;;;;;;4.63;2.20;;;8.70;99.90;;;;;;5050555;28;20208;-57
2023/12/20 09:42:30;;;;;;;4.90;2.33;;;8.70;99.90;;;;;;5050497;28;20282;-58
2023/12/20 09:45:01;;;;;;;3.40;2.43;;;8.80;99.90;;;;;;5050343;28;20697;-58
2023/12/20 09:47:28;;;;;;;3.27;2.27;;;8.80;99.90;;;;;;5035761;28;20620;-56
2023/12/20 09:49:57;;;;;;;4.40;2.30;;;8.80;99.90;;;;;;5050440;28;20284;-59
2023/12/20 09:52:25;;;;;;;3.97;2.13;;;8.80;99.90;;;;;;5050396;28;20226;-57
2023/12/20 09:54:54;;;;;;;3.43;2.10;;;8.90;99.90;;;;;;5050177;28;20226;-57
2023/12/20 09:57:21;;;;;;;4.40;2.10;;;8.90;99.90;;;;;;5050218;28;20201;-57
2023/12/20 09:59:48;;;;;;;2.93;1.90;;;8.90;99.90;;;;;;5050608;28;20209;-56
2023/12/20 10:02:16;;;;;;;5.70;2.20;;;8.90;99.90;;;;;;5051775;28;20367;-57
2023/12/20 10:04:47;;;;;;;4.13;2.20;;;9.00;99.90;;;;;;5053933;28;20312;-56
2023/12/20 10:07:16;;;;;;;3.43;2.20;;;9.10;99.90;;;;;;5053882;28;20213;-56
2023/12/20 10:09:43;;;;;;;5.27;1.70;;;9.20;99.90;;;;;;5053579;28;20205;-57
2023/12/20 10:12:10;;;;;;;3.90;2.03;;;9.30;99.90;;;;;;5053806;28;20714;-53
2023/12/20 10:14:39;;;;;;;6.90;1.57;;;9.30;99.90;;;;;;5054599;28;20209;-53
2023/12/20 10:17:06;;;;;;;8.90;1.70;;;9.30;99.90;;;;;;5054267;28;20233;-56
2023/12/20 10:19:34;;;;;;;4.97;1.80;;;9.40;99.90;;;;;;5053889;28;20206;-53
2023/12/20 10:22:01;;;;;;;4.00;1.50;;;9.50;99.90;;;;;;5053810;28;20229;-54
2023/12/20 10:24:31;;;;;;;5.13;2.27;;;9.60;99.90;;;;;;5054034;28;20206;-56
2023/12/20 10:27:04;;;;;;;6.20;1.70;;;9.70;99.90;;;;;;5053879;28;20202;-55
2023/12/20 10:29:33;;;;;;;4.90;1.60;;;9.60;99.90;;;;;;5038717;28;20209;-54
2023/12/20 10:32:00;;;;;;;4.47;1.47;;;9.60;99.90;;;;;;5053118;28;20280;-56
2023/12/20 10:34:27;;;;;;;4.70;1.30;;;9.60;99.90;;;;;;5053314;28;20206;-53
2023/12/20 10:36:53;;;;;;;4.47;1.40;;;9.50;99.90;;;;;;5053220;28;20228;-53
2023/12/20 10:39:22;;;;;;;3.87;1.33;;;9.50;99.90;;;;;;5053051;28;20233;-55
2023/12/20 10:41:50;;;;;;;2.77;1.17;;;9.60;99.90;;;;;;5053042;28;20293;-55
2023/12/20 10:44:17;;;;;;;3.43;1.27;;;9.70;99.90;;;;;;5053075;28;20213;-53
2023/12/20 10:46:51;;;;;;;3.67;1.20;;;9.80;99.90;;;;;;5052995;28;20232;-52
2023/12/20 10:49:19;;;;;;;3.27;1.27;;;10.00;99.90;;;;;;5053209;28;20275;-55
2023/12/20 10:51:48;;;;;;;3.87;1.40;;;10.00;99.90;;;;;;5052713;28;20212;-52
2023/12/20 10:54:15;;;;;;;9.83;2.70;;;9.90;99.90;;;;;;5052626;28;20205;-53
2023/12/20 10:56:42;;;;;;;4.67;1.57;;;9.90;99.90;;;;;;5052821;28;20643;-53
2023/12/20 10:59:12;;;;;;;3.83;1.33;;;9.80;99.90;;;;;;5052703;28;20202;-54
2023/12/20 11:01:41;;;;;;;7.40;2.03;;;9.70;99.90;;;;;;5052557;28;20218;-52
2023/12/20 11:04:16;;;;;;;9.77;1.73;;;9.40;99.90;;;;;;5052503;28;20610;-52
2023/12/20 11:06:48;;;;;;;3.57;1.47;;;9.20;99.90;;;;;;5052833;28;20262;-53
2023/12/20 11:09:23;;;;;;;5.13;1.63;;;8.90;99.90;;;;;;5052780;28;20275;-55
2023/12/20 11:12:03;;;;;;;6.87;1.50;;;8.80;99.90;;;;;;5052325;28;20209;-54
2023/12/20 11:14:39;;;;;;;5.87;1.60;;;8.70;99.90;;;;;;5037068;28;20209;-53
2023/12/20 11:17:09;;;;;;;4.83;1.73;;;8.60;99.90;;;;;;5052424;28;20278;-53
2023/12/20 11:19:44;;;;;;;4.23;1.57;;;8.70;99.90;;;;;;5052187;28;20210;-53
2023/12/20 11:22:11;;;;;;;6.47;1.97;;;8.80;99.90;;;;;;5052188;28;20224;-56
2023/12/20 11:24:46;;;;;;;4.93;2.00;;;8.90;99.90;;;;;;5052350;28;20209;-54
2023/12/20 11:27:13;;;;;;;6.03;3.17;;;9.00;99.90;;;;;;5052576;28;20224;-52
2023/12/20 11:29:42;;;;;;;4.63;1.50;;;9.00;99.90;;;;;;5052832;28;20260;-53
2023/12/20 11:32:29;;;;;;;6.87;2.80;;;8.90;99.90;;;;;;5052155;28;20315;-52
2023/12/20 11:34:58;;;;;;;4.00;1.20;;;8.80;99.90;;;;;;5052108;28;20210;-53
2023/12/20 11:37:30;;;;;;;4.03;1.33;;;8.90;99.90;;;;;;5051837;28;20694;-52
2023/12/20 11:40:01;;;;;;;5.73;1.40;;;9.00;99.90;;;;;;5052004;28;20302;-52
2023/12/20 11:42:28;;;;;;;4.70;1.20;;;9.20;99.90;;;;;;5036027;28;20229;-53
2023/12/20 11:44:57;;;;;;;3.53;1.27;;;9.40;99.90;;;;;;5052040;28;20205;-53
2023/12/20 11:47:24;;;;;;;2.17;0.93;;;9.50;99.90;;;;;;5047483;28;20200;-56
2023/12/20 11:49:51;;;;;;;7.23;1.60;;;9.60;99.90;;;;;;5047082;28;20237;-54
2023/12/20 11:52:17;;;;;;;5.13;1.63;;;9.60;99.90;;;;;;5050661;28;20902;-53
2023/12/20 11:54:43;;;;;;;6.43;2.10;;;9.70;99.90;;;;;;5051691;28;20251;-53
2023/12/20 11:57:10;;;;;;;8.27;2.10;;;9.70;99.90;;;;;;5051369;28;20221;-58
2023/12/20 11:59:37;;;;;;;4.50;2.00;;;9.60;99.90;;;;;;5051332;28;20691;-55
2023/12/20 12:02:05;;;;;;;3.87;1.40;;;9.60;99.90;;;;;;5051394;28;20654;-58
2023/12/20 12:04:32;;;;;;;6.23;1.77;;;9.50;99.90;;;;;;5051219;28;20210;-58
2023/12/20 12:06:59;;;;;;;4.33;1.57;;;9.40;99.90;;;;;;5051431;28;20766;-57
2023/12/20 12:09:25;;;;;;;3.77;1.57;;;9.30;99.90;;;;;;5051102;28;20210;-56
2023/12/20 12:11:52;;;;;;;6.83;1.33;;;9.30;99.90;;;;;;5051128;28;20225;-58
2023/12/20 12:14:20;;;;;;;4.97;1.50;;;9.30;99.90;;;;;;5051344;28;20267;-59
2023/12/20 12:16:47;;;;;;;6.00;1.63;;;9.40;99.90;;;;;;5051155;28;20221;-59
2023/12/20 12:19:23;;;;;;;5.27;1.73;;;9.30;99.90;;;;;;5050642;28;20624;-59
2023/12/20 12:21:50;;;;;;;4.20;1.57;;;9.30;99.90;;;;;;5051372;28;20300;-59
2023/12/20 12:24:20;;;;;;;7.90;1.40;;;9.50;99.90;;;;;;5050283;28;20205;-61
2023/12/20 12:26:51;;;;;;;7.83;1.80;;;9.60;99.90;;;;;;5051174;28;20307;-57
2023/12/20 12:29:18;;;;;;;5.47;1.50;;;9.80;99.90;;;;;;5045063;28;20683;-57
2023/12/20 12:31:44;;;;;;;6.80;1.97;;;9.90;99.90;;;;;;5024474;28;20214;-60
2023/12/20 12:34:11;;;;;;;6.43;1.83;;;10.10;99.90;;;;;;5031090;28;20214;-57
2023/12/20 12:36:40;;;;;;;7.77;2.00;;;10.20;99.90;;;;;;5031157;28;20226;-57
2023/12/20 12:39:07;;;;;;;6.13;2.00;;;10.30;99.90;;;;;;5031087;28;20308;-57
2023/12/20 12:41:34;;;;;;;4.97;1.80;;;10.40;99.90;;;;;;5038957;28;20664;-57
2023/12/20 12:44:01;;;;;;;4.13;2.00;;;10.40;99.90;;;;;;5030630;28;20264;-59
2023/12/20 12:46:27;;;;;;;8.70;1.67;;;10.50;99.90;;;;;;5030994;28;20295;-58
2023/12/20 12:48:54;;;;;;;4.23;2.00;;;10.60;99.90;;;;;;5030849;28;20577;-57
2023/12/20 12:51:21;;;;;;;5.63;1.60;;;10.70;99.90;;;;;;5030533;28;20206;-59
2023/12/20 12:53:49;;;;;;;5.57;1.70;;;10.80;99.90;;;;;;5030740;28;20249;-56
2023/12/20 12:56:16;;;;;;;3.97;1.37;;;10.70;99.90;;;;;;5030831;28;20313;-56